Terminal Aerodrome Forecast
Issued by NWS

Home | Current Version | Previous Version | Text Only | Print | Product List | Glossary On
Versions: 1 2 3 4 5 6 7 8 9 10 11 12 13 14 15 16 17
000
FTUS43 KILX 060822 AAA
TAFCMI
TAF AMD
KCMI 060822Z 0608/0706 08007KT 5SM BR SCT020 BKN120
     FM061100 06004KT 3SM BR VCSH OVC020
     FM061500 31010KT 4SM BR OVC015
     FM062100 29013KT P6SM BKN035
     FM070000 28009KT P6SM SCT150=

USA.gov is the U.S. government's official web portal to all federal, state and local government web resources and services.